Time;durP1;ratioP1;P1;durP2;ratioP2;P2;SDS_P1;SDS_P2;PMS_P1;PMS_P2;Temp;Humidity;BMP_temperature;BMP_pressure;BME280_temperature;BME280_humidity;BME280_pressure;Samples;Min_cycle;Max_cycle;Signal;HPM_P1;HPM_P2
2021/06/26 00:01:29;;;;;;;20.30;15.17;;;17.40;99.90;;;;;;4483155;27;658821;-73
2021/06/26 00:04:17;;;;;;;17.87;13.90;;;17.40;99.90;;;;;;4498675;27;658735;-73
2021/06/26 00:07:06;;;;;;;20.83;14.83;;;17.40;99.90;;;;;;4469637;27;658998;-73
2021/06/26 00:09:54;;;;;;;18.37;15.07;;;17.30;99.90;;;;;;4467032;27;658651;-73
2021/06/26 00:12:42;;;;;;;19.67;14.70;;;17.30;99.90;;;;;;4505462;27;658040;-73
2021/06/26 00:15:29;;;;;;;19.40;15.23;;;17.20;99.90;;;;;;4465789;27;658680;-73
2021/06/26 00:18:17;;;;;;;23.43;15.20;;;17.10;99.90;;;;;;4499456;27;658512;-73
2021/06/26 00:21:05;;;;;;;19.67;14.90;;;17.00;99.90;;;;;;4470857;27;659856;-73
2021/06/26 00:23:54;;;;;;;19.33;14.93;;;16.80;99.90;;;;;;4465321;27;659052;-73
2021/06/26 00:26:43;;;;;;;20.17;15.03;;;16.80;99.90;;;;;;4494620;27;658772;-74
2021/06/26 00:29:30;;;;;;;18.67;15.17;;;16.70;99.90;;;;;;4462179;27;659212;-73
2021/06/26 00:32:18;;;;;;;21.03;16.27;;;16.70;99.90;;;;;;4473522;27;658749;-73
2021/06/26 00:35:07;;;;;;;22.67;16.53;;;16.50;99.90;;;;;;4498074;27;660303;-73
2021/06/26 00:37:55;;;;;;;21.17;16.20;;;16.50;99.90;;;;;;4468603;27;659990;-73
2021/06/26 00:40:44;;;;;;;24.43;15.97;;;16.50;99.90;;;;;;4497706;27;658949;-73
2021/06/26 00:43:32;;;;;;;28.27;16.70;;;16.40;99.90;;;;;;4491934;27;658715;-73
2021/06/26 00:46:20;;;;;;;25.27;15.97;;;16.40;99.90;;;;;;4473986;27;658408;-73
2021/06/26 00:49:08;;;;;;;22.40;15.20;;;16.30;99.90;;;;;;4488760;27;658133;-73
2021/06/26 00:51:55;;;;;;;22.57;15.80;;;16.30;99.90;;;;;;4485473;27;659589;-73
2021/06/26 00:54:43;;;;;;;26.38;16.77;;;16.20;99.90;;;;;;4464076;27;658893;-73
2021/06/26 00:57:33;;;;;;;21.17;14.87;;;16.20;99.90;;;;;;4496156;27;659988;-74
2021/06/26 01:00:22;;;;;;;23.53;16.23;;;16.20;99.90;;;;;;4473560;27;658903;-74
2021/06/26 01:03:09;;;;;;;21.57;16.10;;;16.20;99.90;;;;;;4464846;27;660650;-74
2021/06/26 01:05:57;;;;;;;27.73;15.83;;;16.20;99.90;;;;;;4485692;27;658875;-73
2021/06/26 01:08:46;;;;;;;25.67;16.80;;;16.10;99.90;;;;;;4476399;27;658829;-73
2021/06/26 01:11:34;;;;;;;21.60;15.10;;;16.10;99.90;;;;;;4477070;27;659187;-74
2021/06/26 01:14:23;;;;;;;24.53;16.23;;;16.20;99.90;;;;;;4495877;27;658847;-73
2021/06/26 01:17:10;;;;;;;29.17;17.47;;;16.10;99.90;;;;;;4464881;27;659642;-73
2021/06/26 01:19:58;;;;;;;29.20;16.13;;;16.10;99.90;;;;;;4470388;27;658638;-73
2021/06/26 01:22:51;;;;;;;24.10;14.50;;;16.10;99.90;;;;;;4492918;27;659006;-73
2021/06/26 01:25:39;;;;;;;27.00;15.07;;;16.10;99.90;;;;;;4472478;27;658468;-73
2021/06/26 01:28:29;;;;;;;25.73;16.50;;;15.90;99.90;;;;;;4499596;27;658676;-73
2021/06/26 01:31:17;;;;;;;31.57;16.97;;;16.00;99.90;;;;;;4476705;27;658839;-74
2021/06/26 01:34:04;;;;;;;35.23;18.87;;;16.00;99.90;;;;;;4474026;27;659110;-74
2021/06/26 01:36:52;;;;;;;27.20;18.17;;;16.00;99.90;;;;;;4493700;27;658444;-73
2021/06/26 01:39:41;;;;;;;25.37;16.87;;;16.20;99.90;;;;;;4476827;27;659075;-74
2021/06/26 01:42:28;;;;;;;25.83;17.07;;;16.20;99.90;;;;;;4479558;27;658766;-74
2021/06/26 01:45:17;;;;;;;26.63;17.57;;;16.20;99.90;;;;;;4497283;27;659047;-73
2021/06/26 01:48:06;;;;;;;25.97;16.97;;;16.30;99.90;;;;;;4466778;27;659854;-73
2021/06/26 01:50:53;;;;;;;29.27;15.43;;;16.30;99.90;;;;;;4479041;27;658749;-73
2021/06/26 01:53:41;;;;;;;24.77;15.83;;;16.40;99.90;;;;;;4507604;27;659675;-73
2021/06/26 01:56:30;;;;;;;21.30;15.57;;;16.40;99.90;;;;;;4476889;27;658534;-74
2021/06/26 01:59:18;;;;;;;25.63;17.67;;;16.40;99.90;;;;;;4479294;27;658906;-73
2021/06/26 02:02:05;;;;;;;24.93;17.40;;;16.40;99.90;;;;;;4503680;27;660456;-73
2021/06/26 02:04:53;;;;;;;24.07;18.60;;;16.40;99.90;;;;;;4481841;27;660156;-73
2021/06/26 02:07:41;;;;;;;29.00;19.07;;;16.50;99.90;;;;;;4505545;27;658826;-74
2021/06/26 02:10:28;;;;;;;23.13;18.17;;;16.50;99.90;;;;;;4475028;27;658999;-73
2021/06/26 02:13:17;;;;;;;28.43;17.43;;;16.60;99.90;;;;;;4498272;27;659464;-74
2021/06/26 02:16:06;;;;;;;23.97;15.00;;;16.60;99.90;;;;;;4463745;27;658955;-74
2021/06/26 02:18:54;;;;;;;21.40;13.93;;;16.50;99.90;;;;;;4468154;27;658537;-73
2021/06/26 02:21:42;;;;;;;22.60;16.17;;;16.50;99.90;;;;;;4493727;27;658715;-73
2021/06/26 02:24:30;;;;;;;21.37;15.00;;;16.60;99.90;;;;;;4475751;27;658781;-74
2021/06/26 02:27:18;;;;;;;18.97;14.60;;;16.50;99.90;;;;;;4507674;27;658165;-74
2021/06/26 02:30:08;;;;;;;23.17;15.63;;;16.50;99.90;;;;;;4492690;27;660056;-73
2021/06/26 02:32:56;;;;;;;20.20;14.27;;;16.50;99.90;;;;;;4464174;27;659224;-74
2021/06/26 02:35:44;;;;;;;26.80;15.73;;;16.50;99.90;;;;;;4482369;27;659782;-73
2021/06/26 02:38:31;;;;;;;23.07;16.77;;;16.50;99.90;;;;;;4486995;27;659564;-73
2021/06/26 02:41:21;;;;;;;27.20;17.17;;;16.50;99.90;;;;;;4467556;27;659240;-73
2021/06/26 02:44:09;;;;;;;19.27;15.33;;;16.60;99.90;;;;;;4472531;27;658263;-73
2021/06/26 02:46:57;;;;;;;20.03;15.00;;;16.60;99.90;;;;;;4502867;27;658764;-73
2021/06/26 02:49:45;;;;;;;22.97;15.13;;;16.60;99.90;;;;;;4471742;27;659233;-74
2021/06/26 02:52:33;;;;;;;20.53;13.70;;;16.60;99.90;;;;;;4482016;27;658522;-73
2021/06/26 02:55:20;;;;;;;19.80;14.53;;;16.60;99.90;;;;;;4488337;27;660395;-73
2021/06/26 02:58:08;;;;;;;23.10;17.37;;;16.60;99.90;;;;;;4474007;27;658869;-73
2021/06/26 03:00:56;;;;;;;26.23;18.93;;;16.60;99.90;;;;;;4489823;27;659006;-73
2021/06/26 03:03:44;;;;;;;27.50;16.63;;;16.60;99.90;;;;;;4476187;27;658717;-73
2021/06/26 03:06:32;;;;;;;25.07;17.53;;;16.70;99.90;;;;;;4506735;27;658674;-73
2021/06/26 03:09:20;;;;;;;22.23;15.50;;;16.70;99.90;;;;;;4483585;27;659539;-73
2021/06/26 03:12:09;;;;;;;19.83;14.87;;;16.70;99.90;;;;;;4485455;27;659192;-73
2021/06/26 03:14:57;;;;;;;28.03;17.83;;;16.60;99.90;;;;;;4481245;27;658555;-73
2021/06/26 03:17:45;;;;;;;24.83;17.47;;;16.60;99.90;;;;;;4472689;27;659981;-73
2021/06/26 03:20:34;;;;;;;22.83;16.67;;;16.70;99.90;;;;;;4494389;27;658729;-73
2021/06/26 03:23:22;;;;;;;19.57;15.10;;;16.70;99.90;;;;;;4486779;27;659126;-74
2021/06/26 03:26:10;;;;;;;30.00;16.73;;;16.70;99.90;;;;;;4470656;27;659845;-73
2021/06/26 03:28:57;;;;;;;27.67;20.00;;;16.70;99.90;;;;;;4493008;27;659043;-73
2021/06/26 03:31:45;;;;;;;27.77;19.63;;;16.70;99.90;;;;;;4469891;27;659613;-73
2021/06/26 03:34:33;;;;;;;26.20;19.27;;;16.70;99.90;;;;;;4492258;27;659058;-73
2021/06/26 03:37:22;;;;;;;29.60;19.07;;;16.70;99.90;;;;;;4496031;27;659697;-73
2021/06/26 03:40:10;;;;;;;30.00;19.83;;;16.70;99.90;;;;;;4462801;27;659510;-73
2021/06/26 03:42:58;;;;;;;26.47;19.67;;;16.70;99.90;;;;;;4476827;27;659189;-73
2021/06/26 03:45:46;;;;;;;27.70;19.77;;;16.70;99.90;;;;;;4496681;27;658913;-73
2021/06/26 03:48:33;;;;;;;31.73;21.47;;;16.70;99.90;;;;;;4473414;27;658830;-73
2021/06/26 03:51:21;;;;;;;30.87;20.23;;;16.70;99.90;;;;;;4496794;27;659220;-73
2021/06/26 03:54:09;;;;;;;27.77;19.17;;;16.70;99.90;;;;;;4476903;27;658797;-73
2021/06/26 03:56:57;;;;;;;30.20;19.60;;;16.80;99.90;;;;;;4500740;27;658474;-74
2021/06/26 03:59:46;;;;;;;32.53;20.27;;;16.80;99.90;;;;;;4462142;27;659663;-73
2021/06/26 04:02:34;;;;;;;30.57;20.10;;;16.70;99.90;;;;;;4466551;27;658288;-73
2021/06/26 04:05:21;;;;;;;31.67;19.47;;;16.80;99.90;;;;;;4486663;27;658897;-73
2021/06/26 04:08:10;;;;;;;31.23;20.37;;;16.80;99.90;;;;;;4465420;27;659060;-73
2021/06/26 04:10:59;;;;;;;34.90;21.53;;;16.80;99.90;;;;;;4490955;27;658819;-73
2021/06/26 04:13:47;;;;;;;36.07;20.67;;;16.80;99.90;;;;;;4489775;27;658278;-73
2021/06/26 04:16:35;;;;;;;35.73;21.43;;;16.90;99.90;;;;;;4481641;27;659111;-73
2021/06/26 04:19:23;;;;;;;37.23;22.67;;;17.00;99.90;;;;;;4493342;27;658664;-73
2021/06/26 04:22:11;;;;;;;36.37;21.37;;;17.00;99.90;;;;;;4484496;27;659013;-73
2021/06/26 04:24:59;;;;;;;38.17;24.10;;;17.00;99.90;;;;;;4469473;27;659080;-73
2021/06/26 04:27:48;;;;;;;43.73;22.83;;;17.00;99.90;;;;;;4497240;27;658462;-73
2021/06/26 04:30:36;;;;;;;40.17;23.00;;;17.10;99.90;;;;;;4468051;27;660056;-73
2021/06/26 04:33:26;;;;;;;38.20;24.17;;;17.20;99.90;;;;;;4481867;27;658899;-73
2021/06/26 04:36:14;;;;;;;37.67;23.03;;;17.30;99.90;;;;;;4468196;27;659322;-73
2021/06/26 04:39:07;;;;;;;38.28;22.13;;;17.30;99.90;;;;;;4485389;27;658326;-73
2021/06/26 04:41:55;;;;;;;38.57;23.73;;;17.40;99.90;;;;;;4444692;27;658973;-73
2021/06/26 04:44:44;;;;;;;38.27;23.37;;;17.40;99.90;;;;;;4481417;27;658963;-73
2021/06/26 04:47:32;;;;;;;39.23;24.77;;;17.40;99.90;;;;;;4489481;27;658470;-73
2021/06/26 04:50:19;;;;;;;39.07;24.57;;;17.50;99.90;;;;;;4481222;27;659398;-73
2021/06/26 04:53:07;;;;;;;40.57;25.67;;;17.60;99.90;;;;;;4505709;27;658118;-73
2021/06/26 04:55:55;;;;;;;38.30;23.40;;;17.60;99.90;;;;;;4475447;27;659665;-73
2021/06/26 04:58:43;;;;;;;36.33;24.07;;;17.70;99.90;;;;;;4482864;27;659020;-73
2021/06/26 05:01:32;;;;;;;35.87;23.33;;;17.80;99.90;;;;;;4483970;27;659678;-73
2021/06/26 05:04:20;;;;;;;34.57;24.00;;;17.80;99.90;;;;;;4468402;27;659407;-73
2021/06/26 05:07:08;;;;;;;40.17;26.00;;;17.90;99.90;;;;;;4486701;27;658823;-73
2021/06/26 05:09:55;;;;;;;37.97;25.43;;;18.10;99.90;;;;;;4494195;27;659229;-72
2021/06/26 05:12:44;;;;;;;35.50;24.30;;;18.20;99.90;;;;;;4480569;27;658600;-72
2021/06/26 05:15:31;;;;;;;34.83;24.10;;;18.30;99.90;;;;;;4490119;27;659761;-73
2021/06/26 05:18:20;;;;;;;33.93;23.53;;;18.40;99.90;;;;;;4478991;27;658488;-72
2021/06/26 05:21:08;;;;;;;37.03;23.77;;;18.50;99.90;;;;;;4471914;27;658586;-73
2021/06/26 05:23:56;;;;;;;32.03;21.57;;;18.60;99.90;;;;;;4498201;27;659116;-73
2021/06/26 05:26:43;;;;;;;35.53;21.33;;;18.70;99.90;;;;;;4465661;27;659768;-72
2021/06/26 05:29:31;;;;;;;27.90;18.20;;;18.80;99.90;;;;;;4484565;27;659639;-73
2021/06/26 05:32:19;;;;;;;28.97;19.23;;;19.00;99.90;;;;;;4473069;27;658460;-72
2021/06/26 05:35:09;;;;;;;25.53;16.90;;;19.20;99.90;;;;;;4496415;27;660166;-72
2021/06/26 05:37:56;;;;;;;25.03;17.83;;;19.20;99.90;;;;;;4476488;27;659374;-72
2021/06/26 05:40:44;;;;;;;25.95;17.55;;;19.30;99.90;;;;;;4472715;27;659126;-72
2021/06/26 05:43:31;;;;;;;29.97;17.93;;;19.50;99.90;;;;;;4493806;27;658959;-72
2021/06/26 05:46:19;;;;;;;25.63;18.27;;;19.50;99.90;;;;;;4472793;27;659247;-72
2021/06/26 05:49:06;;;;;;;27.90;17.53;;;19.70;99.90;;;;;;4500140;27;658742;-73
2021/06/26 05:51:55;;;;;;;22.90;16.87;;;19.70;99.90;;;;;;4469415;27;659194;-73
2021/06/26 05:54:43;;;;;;;26.83;17.03;;;19.80;99.90;;;;;;4480223;27;658720;-72
2021/06/26 05:57:31;;;;;;;32.07;18.07;;;19.90;99.90;;;;;;4486274;27;658169;-72
2021/06/26 06:00:19;;;;;;;33.40;18.40;;;19.80;99.90;;;;;;4464285;27;658734;-72
2021/06/26 06:03:07;;;;;;;33.67;18.90;;;19.70;99.90;;;;;;4496004;27;659189;-73
2021/06/26 06:05:54;;;;;;;36.07;18.80;;;19.60;99.90;;;;;;4467346;27;659345;-72
2021/06/26 06:08:44;;;;;;;34.40;19.20;;;19.60;99.90;;;;;;4484780;27;658852;-73
2021/06/26 06:11:31;;;;;;;34.00;19.13;;;19.60;99.90;;;;;;4469694;27;658989;-72
2021/06/26 06:14:19;;;;;;;36.37;21.53;;;19.50;99.90;;;;;;4472472;27;658567;-71
2021/06/26 06:17:06;;;;;;;35.83;20.10;;;19.50;99.90;;;;;;4499957;27;659456;-71
2021/06/26 06:19:54;;;;;;;34.40;20.20;;;19.50;99.90;;;;;;4471439;27;658955;-73
2021/06/26 06:22:41;;;;;;;39.77;21.47;;;19.40;99.90;;;;;;4491836;27;658983;-71
2021/06/26 06:25:32;;;;;;;40.30;21.13;;;19.40;99.90;;;;;;4471625;27;658856;-72
2021/06/26 06:28:20;;;;;;;39.47;20.53;;;19.40;99.90;;;;;;4462817;27;659287;-72
2021/06/26 06:31:08;;;;;;;35.53;21.17;;;19.50;99.90;;;;;;4497796;27;658020;-71
2021/06/26 06:33:56;;;;;;;35.60;20.60;;;19.60;99.90;;;;;;4470510;27;659009;-72
2021/06/26 06:36:43;;;;;;;34.67;20.07;;;19.70;99.90;;;;;;4467500;27;659034;-72
2021/06/26 06:39:31;;;;;;;35.43;20.17;;;19.80;99.90;;;;;;4493503;27;659335;-72
2021/06/26 06:42:28;;;;;;;36.27;19.07;;;19.90;99.90;;;;;;4472488;27;659002;-72
2021/06/26 06:45:17;;;;;;;31.90;18.83;;;20.00;99.90;;;;;;4468787;27;659062;-71
2021/06/26 06:48:05;;;;;;;34.10;18.93;;;20.10;99.90;;;;;;4476637;27;659032;-70
2021/06/26 06:50:53;;;;;;;28.47;17.97;;;20.30;99.90;;;;;;4470093;27;659179;-71
2021/06/26 06:53:40;;;;;;;30.03;16.73;;;20.40;99.90;;;;;;4487634;27;659676;-69
2021/06/26 06:56:28;;;;;;;34.45;18.38;;;20.50;99.90;;;;;;4476322;27;658631;-70
2021/06/26 06:59:17;;;;;;;30.10;17.47;;;20.80;99.90;;;;;;4493170;27;659937;-68
2021/06/26 07:02:05;;;;;;;25.63;16.10;;;20.80;99.90;;;;;;4468079;27;659200;-70
2021/06/26 07:04:53;;;;;;;27.27;15.67;;;20.70;99.90;;;;;;4497206;27;658832;-71
2021/06/26 07:07:40;;;;;;;27.13;16.80;;;20.80;99.90;;;;;;4501128;27;660025;-70
2021/06/26 07:10:28;;;;;;;25.30;16.30;;;20.90;99.90;;;;;;4480698;27;658645;-70
2021/06/26 07:13:15;;;;;;;23.77;16.20;;;20.80;99.90;;;;;;4497684;27;659948;-67
2021/06/26 07:16:05;;;;;;;24.07;15.67;;;20.70;99.90;;;;;;4465232;27;658549;-67
2021/06/26 07:18:53;;;;;;;26.03;15.33;;;20.70;99.90;;;;;;4462462;27;659124;-67
2021/06/26 07:21:40;;;;;;;28.90;15.70;;;20.90;99.90;;;;;;4468328;28;659285;-67
2021/06/26 07:24:28;;;;;;;26.83;15.47;;;21.10;99.90;;;;;;4449237;27;658974;-68
2021/06/26 07:27:15;;;;;;;26.83;16.37;;;21.10;99.90;;;;;;4470543;28;659855;-68
2021/06/26 07:30:03;;;;;;;27.37;16.40;;;21.20;99.90;;;;;;4458940;27;658421;-68
2021/06/26 07:32:52;;;;;;;22.33;14.73;;;21.20;99.90;;;;;;4484439;27;659256;-68
2021/06/26 07:35:40;;;;;;;28.83;15.43;;;21.50;99.90;;;;;;4447507;27;660032;-68
2021/06/26 07:38:28;;;;;;;23.27;14.80;;;21.80;99.90;;;;;;4473237;27;659228;-68
2021/06/26 07:41:15;;;;;;;27.77;15.40;;;21.90;99.90;;;;;;4482393;27;659396;-68
2021/06/26 07:44:03;;;;;;;24.77;14.77;;;22.00;99.90;;;;;;4461610;27;658764;-68
2021/06/26 07:46:51;;;;;;;19.37;13.63;;;22.00;99.90;;;;;;4477652;27;659364;-68
2021/06/26 07:49:40;;;;;;;21.10;13.60;;;22.00;99.90;;;;;;4448705;27;658449;-69
2021/06/26 07:52:28;;;;;;;20.53;13.37;;;21.70;99.90;;;;;;4469911;27;658939;-69
2021/06/26 07:55:15;;;;;;;23.07;12.90;;;21.70;99.90;;;;;;4487005;27;659713;-68
2021/06/26 07:58:03;;;;;;;20.47;13.10;;;21.80;99.90;;;;;;4446888;28;659917;-69
2021/06/26 08:00:51;;;;;;;18.77;13.30;;;21.70;99.90;;;;;;4468763;27;659976;-69
2021/06/26 08:03:38;;;;;;;19.13;13.03;;;21.60;99.90;;;;;;4451058;27;658775;-69
2021/06/26 08:06:27;;;;;;;19.47;12.47;;;21.70;99.90;;;;;;4480109;27;659720;-69
2021/06/26 08:09:15;;;;;;;22.03;15.37;;;21.80;99.90;;;;;;4458708;27;659434;-68
2021/06/26 08:12:03;;;;;;;23.73;16.43;;;21.80;99.90;;;;;;4452094;28;658144;-69
2021/06/26 08:14:51;;;;;;;20.67;14.13;;;21.60;99.90;;;;;;4481048;27;659090;-69
2021/06/26 08:17:38;;;;;;;17.00;11.93;;;21.50;99.90;;;;;;4471946;27;658860;-69
2021/06/26 08:20:26;;;;;;;22.83;14.20;;;21.30;99.90;;;;;;4493770;27;659285;-68
2021/06/26 08:23:15;;;;;;;22.23;14.37;;;21.10;99.90;;;;;;4478395;27;658530;-68
2021/06/26 08:26:06;;;;;;;18.93;12.37;;;20.70;99.90;;;;;;4469481;27;658588;-69
2021/06/26 08:28:55;;;;;;;18.13;12.10;;;20.50;99.90;;;;;;4469040;27;658905;-69
2021/06/26 08:31:43;;;;;;;19.87;12.43;;;20.40;99.90;;;;;;4474634;27;659030;-69
2021/06/26 08:34:31;;;;;;;18.20;12.43;;;20.30;99.90;;;;;;4495620;27;659332;-70
2021/06/26 08:37:19;;;;;;;16.90;12.97;;;20.20;99.90;;;;;;4446909;27;659249;-69
2021/06/26 08:40:13;;;;;;;18.03;12.20;;;20.20;99.90;;;;;;4486580;27;659555;-70
2021/06/26 08:43:00;;;;;;;16.40;12.20;;;20.10;99.90;;;;;;4462114;27;659473;-69
2021/06/26 08:45:48;;;;;;;16.27;12.17;;;20.20;99.90;;;;;;4467721;27;658896;-69
2021/06/26 08:48:35;;;;;;;13.13;10.60;;;20.10;99.90;;;;;;4493626;27;659323;-69
2021/06/26 08:51:23;;;;;;;13.67;9.30;;;20.10;99.90;;;;;;4473851;27;658857;-71
2021/06/26 08:54:13;;;;;;;12.70;9.77;;;20.00;99.90;;;;;;4502576;27;657288;-70
2021/06/26 08:57:02;;;;;;;12.70;8.70;;;19.90;99.90;;;;;;4472104;27;657808;-69
2021/06/26 08:59:49;;;;;;;11.77;7.30;;;19.90;99.90;;;;;;4462614;27;657970;-69
2021/06/26 09:02:37;;;;;;;9.77;6.70;;;19.80;99.90;;;;;;4489783;27;658124;-69
2021/06/26 09:05:25;;;;;;;8.33;5.83;;;19.70;99.90;;;;;;4475521;27;658219;-69
2021/06/26 09:08:14;;;;;;;8.13;5.33;;;19.70;99.90;;;;;;4471777;27;656462;-69
2021/06/26 09:11:01;;;;;;;7.93;5.60;;;19.70;99.90;;;;;;4490605;27;656513;-69
2021/06/26 09:13:50;;;;;;;10.57;6.30;;;19.80;99.90;;;;;;4464604;27;656823;-69
2021/06/26 09:16:38;;;;;;;13.33;6.50;;;19.80;99.90;;;;;;4468820;27;657911;-69
2021/06/26 09:19:26;;;;;;;10.73;6.13;;;19.80;99.90;;;;;;4503160;27;657758;-71
2021/06/26 09:22:13;;;;;;;9.20;6.10;;;20.00;99.90;;;;;;4481053;27;658037;-70
2021/06/26 09:25:01;;;;;;;8.20;5.97;;;20.00;99.90;;;;;;4504751;27;656847;-70
2021/06/26 09:27:48;;;;;;;10.53;5.73;;;20.10;99.90;;;;;;4480480;27;657377;-69
2021/06/26 09:30:39;;;;;;;11.20;5.27;;;20.00;99.90;;;;;;4497339;27;658528;-69
2021/06/26 09:33:27;;;;;;;5.73;4.70;;;20.00;99.90;;;;;;4474912;27;657655;-69
2021/06/26 09:36:15;;;;;;;5.90;4.50;;;20.00;99.90;;;;;;4484584;27;657635;-69
2021/06/26 09:39:06;;;;;;;6.77;4.70;;;20.10;99.90;;;;;;4497716;27;656806;-69
2021/06/26 09:41:53;;;;;;;8.87;6.23;;;20.10;99.90;;;;;;4484405;27;656350;-69
2021/06/26 09:44:52;;;;;;;12.93;7.93;;;20.10;99.90;;;;;;4503654;27;656681;-69
2021/06/26 09:47:42;;;;;;;12.53;8.87;;;20.00;99.90;;;;;;4440539;27;658050;-69
2021/06/26 09:50:29;;;;;;;15.77;10.07;;;19.90;99.90;;;;;;4465595;28;658715;-69
2021/06/26 09:53:17;;;;;;;14.97;11.20;;;20.10;99.90;;;;;;4482974;28;658883;-69
2021/06/26 09:56:05;;;;;;;14.03;10.00;;;20.30;99.90;;;;;;4463635;28;659109;-69
2021/06/26 09:58:53;;;;;;;12.07;8.10;;;20.50;99.90;;;;;;4478208;28;658608;-69
2021/06/26 10:01:42;;;;;;;9.70;6.90;;;20.70;99.90;;;;;;4522457;28;659386;-69
2021/06/26 10:04:31;;;;;;;14.70;8.03;;;21.00;99.90;;;;;;4463574;27;657273;-69
2021/06/26 10:07:19;;;;;;;14.20;10.97;;;21.10;99.90;;;;;;4469910;27;657747;-69
2021/06/26 10:10:08;;;;;;;17.10;11.83;;;21.10;99.90;;;;;;4486598;27;659319;-69
2021/06/26 10:12:56;;;;;;;20.83;14.67;;;21.10;99.90;;;;;;4464119;27;659291;-69
2021/06/26 10:15:44;;;;;;;25.50;17.10;;;20.90;99.90;;;;;;4466509;27;658735;-69
2021/06/26 10:18:31;;;;;;;29.13;17.30;;;20.70;99.90;;;;;;4487627;27;658528;-69
2021/06/26 10:21:20;;;;;;;25.47;16.23;;;20.60;99.90;;;;;;4468143;27;658657;-69
2021/06/26 10:24:11;;;;;;;24.53;14.63;;;20.40;99.90;;;;;;4483036;27;659215;-69
2021/06/26 10:26:58;;;;;;;20.33;13.57;;;20.40;99.90;;;;;;4485332;27;658916;-70
2021/06/26 10:29:46;;;;;;;15.87;11.53;;;20.50;99.90;;;;;;4504250;27;658625;-69
2021/06/26 10:32:34;;;;;;;25.47;16.37;;;20.70;99.90;;;;;;4484873;27;658616;-70
2021/06/26 10:35:22;;;;;;;20.83;13.73;;;20.70;99.90;;;;;;4504485;27;658473;-70
2021/06/26 10:38:12;;;;;;;21.33;16.43;;;20.80;99.90;;;;;;4485105;27;659825;-69
2021/06/26 10:40:59;;;;;;;33.30;18.90;;;20.80;99.90;;;;;;4476195;27;659546;-70
2021/06/26 10:43:56;;;;;;;28.03;20.00;;;20.70;99.90;;;;;;4496729;27;658760;-69
2021/06/26 10:46:48;;;;;;;22.17;16.27;;;20.80;99.90;;;;;;4451212;27;659188;-69
2021/06/26 10:49:35;;;;;;;29.53;17.37;;;21.00;99.90;;;;;;4480419;27;659782;-69
2021/06/26 10:52:23;;;;;;;24.40;16.70;;;21.20;99.90;;;;;;4475655;27;658830;-69
2021/06/26 10:55:12;;;;;;;25.03;17.97;;;21.10;99.90;;;;;;4505852;27;659786;-69
2021/06/26 10:58:00;;;;;;;26.33;18.67;;;21.20;99.90;;;;;;4484089;27;659819;-70
2021/06/26 11:00:48;;;;;;;32.30;19.90;;;21.30;99.90;;;;;;4476017;27;658906;-69
2021/06/26 11:03:35;;;;;;;31.27;21.30;;;21.10;99.90;;;;;;4492135;27;659684;-69
2021/06/26 11:06:26;;;;;;;34.97;20.93;;;21.10;99.90;;;;;;4481817;27;659032;-70
2021/06/26 11:09:14;;;;;;;28.20;19.90;;;21.20;99.90;;;;;;4471133;27;658947;-70
2021/06/26 11:12:10;;;;;;;27.90;17.67;;;21.40;99.90;;;;;;4503755;27;658729;-70
2021/06/26 11:15:04;;;;;;;24.27;18.33;;;21.70;99.90;;;;;;4470777;27;658868;-70
2021/06/26 11:17:52;;;;;;;23.73;17.40;;;21.80;99.90;;;;;;4477216;27;658771;-69
2021/06/26 11:20:40;;;;;;;24.63;17.03;;;21.80;99.90;;;;;;4469941;27;659084;-70
2021/06/26 11:23:28;;;;;;;22.73;17.30;;;21.80;99.90;;;;;;4497327;27;658742;-69
2021/06/26 11:26:15;;;;;;;18.50;13.97;;;22.00;99.90;;;;;;4498041;27;659678;-69
2021/06/26 11:29:05;;;;;;;19.53;14.77;;;22.20;99.90;;;;;;4482744;27;659182;-69
2021/06/26 11:31:53;;;;;;;21.43;14.03;;;22.50;99.90;;;;;;4485531;27;659264;-69
2021/06/26 11:34:40;;;;;;;22.50;14.17;;;22.80;99.90;;;;;;4505889;27;659239;-69
2021/06/26 11:37:35;;;;;;;20.23;12.23;;;23.20;99.90;;;;;;4478468;27;659003;-69
2021/06/26 11:40:24;;;;;;;21.70;14.03;;;23.50;99.90;;;;;;4472154;27;658499;-69
2021/06/26 11:43:11;;;;;;;21.80;13.10;;;24.00;99.90;;;;;;4501101;27;658197;-69
2021/06/26 11:46:01;;;;;;;16.43;10.97;;;24.30;99.90;;;;;;4479995;27;658880;-70
2021/06/26 11:48:50;;;;;;;19.77;12.70;;;24.40;99.90;;;;;;4487171;27;658961;-70
2021/06/26 11:51:39;;;;;;;15.38;11.48;;;24.80;99.90;;;;;;4484193;27;658828;-69
2021/06/26 11:54:26;;;;;;;16.58;9.85;;;25.40;99.90;;;;;;4501978;27;658465;-69
2021/06/26 11:57:14;;;;;;;17.75;10.88;;;26.10;99.90;;;;;;4484790;27;658419;-69
2021/06/26 12:00:02;;;;;;;19.73;9.90;;;25.80;99.90;;;;;;4498056;27;658183;-69
2021/06/26 12:02:51;;;;;;;12.60;9.68;;;25.60;99.90;;;;;;4484947;27;658403;-69
2021/06/26 12:05:38;;;;;;;21.60;11.65;;;25.30;99.90;;;;;;4483951;27;657871;-70
2021/06/26 12:08:26;;;;;;;20.05;9.70;;;24.80;99.90;;;;;;4484568;27;659520;-69
2021/06/26 12:11:14;;;;;;;13.55;8.90;;;24.30;99.90;;;;;;4466488;27;657303;-70
2021/06/26 12:14:02;;;;;;;15.07;9.45;;;23.70;99.90;;;;;;4485416;27;658174;-69
2021/06/26 12:16:50;;;;;;;18.00;9.57;;;23.30;99.90;;;;;;4465535;27;658874;-69
2021/06/26 12:19:39;;;;;;;17.30;9.27;;;22.80;99.90;;;;;;4474147;27;657420;-69
2021/06/26 12:22:29;;;;;;;12.27;8.93;;;22.70;99.90;;;;;;4488284;27;657977;-70
2021/06/26 12:25:21;;;;;;;15.03;8.90;;;22.70;99.90;;;;;;4480429;27;657668;-71
2021/06/26 12:28:09;;;;;;;18.50;10.07;;;22.20;99.90;;;;;;4457478;27;657528;-70
2021/06/26 12:31:01;;;;;;;15.10;10.47;;;22.10;99.90;;;;;;4502278;27;658458;-69
2021/06/26 12:33:58;;;;;;;16.77;11.23;;;22.10;99.90;;;;;;4457303;27;659078;-69
2021/06/26 12:36:53;;;;;;;19.37;10.33;;;22.10;99.90;;;;;;4479051;27;658557;-69
2021/06/26 12:39:41;;;;;;;16.50;10.10;;;22.30;99.90;;;;;;4478645;27;658741;-69
2021/06/26 12:42:28;;;;;;;16.73;9.93;;;22.50;99.90;;;;;;4483003;27;658580;-69
2021/06/26 12:45:16;;;;;;;16.67;10.00;;;22.50;99.90;;;;;;4504390;27;658211;-69
2021/06/26 12:48:09;;;;;;;16.80;9.47;;;22.80;99.90;;;;;;4466295;27;658839;-69
2021/06/26 12:51:02;;;;;;;16.77;8.60;;;23.20;99.90;;;;;;4476047;27;658193;-69
2021/06/26 12:53:52;;;;;;;12.30;8.07;;;23.60;99.90;;;;;;4456088;27;658866;-69
2021/06/26 12:56:41;;;;;;;13.03;7.63;;;23.80;99.90;;;;;;4480054;27;658641;-69
2021/06/26 12:59:34;;;;;;;12.27;8.17;;;23.60;99.90;;;;;;4475392;27;657849;-69
2021/06/26 13:02:21;;;;;;;12.20;7.20;;;23.50;99.90;;;;;;4479868;27;657698;-69
2021/06/26 13:05:18;;;;;;;11.57;7.20;;;23.40;99.90;;;;;;4482936;27;657571;-69
2021/06/26 13:08:06;;;;;;;10.93;7.43;;;23.40;99.90;;;;;;4478274;27;658637;-69
2021/06/26 13:10:55;;;;;;;12.17;7.43;;;23.10;99.90;;;;;;4484217;27;657745;-70
2021/06/26 13:13:43;;;;;;;13.27;7.77;;;23.00;99.90;;;;;;4475666;27;657588;-69
2021/06/26 13:16:31;;;;;;;13.93;8.63;;;22.80;99.90;;;;;;4502242;27;657984;-70
2021/06/26 13:19:18;;;;;;;13.93;8.77;;;22.70;99.90;;;;;;4481077;27;657474;-70
2021/06/26 13:22:06;;;;;;;15.17;8.27;;;22.90;99.90;;;;;;4501983;27;659006;-70
2021/06/26 13:24:54;;;;;;;12.90;8.30;;;23.00;99.90;;;;;;4478411;27;657629;-69
2021/06/26 13:27:45;;;;;;;10.67;8.50;;;23.10;99.90;;;;;;4502560;27;657812;-69
2021/06/26 13:30:33;;;;;;;12.07;7.57;;;23.30;99.90;;;;;;4454259;27;658481;-69
2021/06/26 13:33:20;;;;;;;11.87;7.40;;;23.50;99.90;;;;;;4484578;27;657277;-70
2021/06/26 13:36:08;;;;;;;11.93;6.80;;;23.70;99.90;;;;;;4464366;27;657673;-69
2021/06/26 13:38:55;;;;;;;9.17;6.57;;;23.80;99.90;;;;;;4488163;27;658232;-69
2021/06/26 13:41:43;;;;;;;8.60;5.90;;;24.10;99.90;;;;;;4466229;28;656417;-70
2021/06/26 13:44:32;;;;;;;7.97;5.97;;;24.30;99.90;;;;;;4485391;28;657606;-69
2021/06/26 13:47:20;;;;;;;9.32;6.03;;;24.70;99.90;;;;;;4480703;27;657515;-69
2021/06/26 13:50:09;;;;;;;10.77;6.28;;;25.50;99.90;;;;;;4501876;27;656462;-69
2021/06/26 13:52:56;;;;;;;9.38;6.57;;;26.20;99.90;;;;;;4502303;27;657974;-69
2021/06/26 13:55:50;;;;;;;8.80;6.72;;;26.40;99.90;;;;;;4484664;27;656527;-69
2021/06/26 13:58:38;;;;;;;9.02;6.63;;;26.30;99.90;;;;;;4474894;27;657524;-69
2021/06/26 14:01:27;;;;;;;14.05;6.80;;;26.30;99.90;;;;;;4503323;27;657568;-69
2021/06/26 14:04:14;;;;;;;6.97;5.60;;;26.10;99.90;;;;;;4482975;27;657634;-70
2021/06/26 14:07:01;;;;;;;6.78;5.43;;;25.80;99.90;;;;;;4503313;27;656651;-70